Time;durP1;ratioP1;P1;durP2;ratioP2;P2;SDS_P1;SDS_P2;PMS_P1;PMS_P2;Temp;Humidity;BMP_temperature;BMP_pressure;BME280_temperature;BME280_humidity;BME280_pressure;Samples;Min_cycle;Max_cycle;Signal;HPM_P1;HPM_P2
2022/05/07 00:01:04;;;;;;;50.35;29.95;;;14.20;99.90;;;;;;5068797;28;20506;-68
2022/05/07 00:03:30;;;;;;;51.83;31.08;;;14.10;99.90;;;;;;5070746;28;20376;-67
2022/05/07 00:05:55;;;;;;;44.33;28.77;;;14.00;99.90;;;;;;5072271;28;20036;-67
2022/05/07 00:08:21;;;;;;;48.17;29.02;;;14.10;99.90;;;;;;5069100;28;20391;-68
2022/05/07 00:10:47;;;;;;;52.10;29.85;;;14.10;99.90;;;;;;5069869;28;20047;-69
2022/05/07 00:13:13;;;;;;;50.20;32.72;;;14.20;99.90;;;;;;5070626;28;20125;-68
2022/05/07 00:15:39;;;;;;;51.65;31.92;;;14.20;99.90;;;;;;5070683;28;20564;-68
2022/05/07 00:18:07;;;;;;;53.60;31.10;;;14.20;99.90;;;;;;5071087;28;20072;-67
2022/05/07 00:20:34;;;;;;;45.83;29.30;;;14.20;99.90;;;;;;5068644;28;20419;-68
2022/05/07 00:23:00;;;;;;;53.75;31.48;;;14.00;99.90;;;;;;5070192;28;20053;-67
2022/05/07 00:25:27;;;;;;;53.88;29.92;;;14.10;99.90;;;;;;5072412;28;20458;-67
2022/05/07 00:27:52;;;;;;;43.25;28.92;;;14.20;99.90;;;;;;5069729;28;20131;-68
2022/05/07 00:30:18;;;;;;;46.58;29.27;;;14.00;99.90;;;;;;5069430;28;20123;-68
2022/05/07 00:32:44;;;;;;;48.15;30.52;;;14.00;99.90;;;;;;5070438;28;20041;-68
2022/05/07 00:35:10;;;;;;;46.78;28.13;;;14.00;99.90;;;;;;5069948;28;20043;-67
2022/05/07 00:37:39;;;;;;;46.95;30.63;;;14.00;99.90;;;;;;5070793;28;20044;-68
2022/05/07 00:40:06;;;;;;;48.70;29.58;;;14.10;99.90;;;;;;5070422;28;20111;-67
2022/05/07 00:42:31;;;;;;;49.35;30.13;;;13.90;99.90;;;;;;5069651;28;20036;-67
2022/05/07 00:44:57;;;;;;;51.50;31.58;;;13.80;99.90;;;;;;5070576;28;20029;-68
2022/05/07 00:47:34;;;;;;;49.03;29.17;;;14.00;99.90;;;;;;5069351;28;20040;-68
2022/05/07 00:52:46;;;;;;;45.05;29.35;;;13.80;99.90;;;;;;5059677;28;20507;-67
2022/05/07 00:55:13;;;;;;;47.58;29.02;;;14.00;99.90;;;;;;5070082;28;20521;-67
2022/05/07 00:57:39;;;;;;;44.35;28.67;;;13.90;99.90;;;;;;5069609;28;20541;-67
2022/05/07 01:00:06;;;;;;;41.47;28.90;;;14.10;99.90;;;;;;5068418;28;20492;-67
2022/05/07 01:02:32;;;;;;;48.55;30.17;;;13.90;99.90;;;;;;5071013;28;20045;-68
2022/05/07 01:04:58;;;;;;;44.45;29.50;;;13.90;99.90;;;;;;5069306;28;20106;-68
2022/05/07 01:07:23;;;;;;;44.53;27.65;;;14.00;99.90;;;;;;5070716;28;20044;-68
2022/05/07 01:09:49;;;;;;;37.92;24.80;;;13.90;99.90;;;;;;5068549;28;20403;-67
2022/05/07 01:12:19;;;;;;;41.22;28.33;;;13.80;99.90;;;;;;5068728;28;20040;-68
2022/05/07 01:14:44;;;;;;;48.13;27.92;;;13.60;99.90;;;;;;5069759;28;20039;-68
2022/05/07 01:17:10;;;;;;;41.58;28.05;;;13.90;99.90;;;;;;5068331;28;20040;-68
2022/05/07 01:19:36;;;;;;;46.30;28.38;;;13.80;99.90;;;;;;5068587;28;20494;-68
2022/05/07 01:22:02;;;;;;;47.75;29.38;;;13.80;99.90;;;;;;5070357;28;20355;-68
2022/05/07 01:24:28;;;;;;;51.35;30.27;;;13.80;99.90;;;;;;5069659;28;20529;-68
2022/05/07 01:26:53;;;;;;;45.60;28.52;;;13.90;99.90;;;;;;5069897;28;20106;-68
2022/05/07 01:29:19;;;;;;;48.35;30.58;;;13.70;99.90;;;;;;5070010;28;20047;-67
2022/05/07 01:31:45;;;;;;;45.47;31.70;;;13.80;99.90;;;;;;5068201;28;20040;-68
2022/05/07 01:34:10;;;;;;;39.47;27.58;;;13.70;99.90;;;;;;5071389;28;20040;-68
2022/05/07 01:36:36;;;;;;;45.15;28.02;;;13.80;99.90;;;;;;5069990;28;20041;-68
2022/05/07 01:39:02;;;;;;;42.80;27.25;;;13.80;99.90;;;;;;5069563;28;20468;-68
2022/05/07 01:41:27;;;;;;;40.28;27.48;;;13.70;99.90;;;;;;5071072;28;20039;-68
2022/05/07 01:43:53;;;;;;;39.17;27.55;;;13.60;99.90;;;;;;5060140;28;20520;-68
2022/05/07 01:49:03;;;;;;;39.20;26.45;;;13.50;99.90;;;;;;5069043;28;20418;-69
2022/05/07 01:51:29;;;;;;;37.45;27.30;;;13.60;99.90;;;;;;5069442;28;20033;-68
2022/05/07 01:53:55;;;;;;;46.95;29.33;;;13.70;99.90;;;;;;5071181;28;20045;-68
2022/05/07 01:56:21;;;;;;;39.25;27.50;;;13.60;99.90;;;;;;5069722;28;20075;-68
2022/05/07 01:58:48;;;;;;;39.47;28.27;;;13.60;99.90;;;;;;5078405;28;20068;-68
2022/05/07 02:01:14;;;;;;;39.88;26.48;;;13.60;99.90;;;;;;5069039;28;20090;-68
2022/05/07 02:03:39;;;;;;;36.67;26.75;;;13.40;99.90;;;;;;5069772;28;20486;-68
2022/05/07 02:06:05;;;;;;;41.03;26.27;;;13.80;99.90;;;;;;5070219;28;20043;-68
2022/05/07 02:08:31;;;;;;;38.33;27.13;;;13.50;99.90;;;;;;5069167;28;20104;-68
2022/05/07 02:10:59;;;;;;;35.88;26.13;;;13.50;99.90;;;;;;5051741;28;20048;-68
2022/05/07 02:13:25;;;;;;;39.13;27.92;;;13.40;99.90;;;;;;5050628;28;20029;-67
2022/05/07 02:15:50;;;;;;;40.90;28.05;;;13.50;99.90;;;;;;5069213;28;20470;-69
2022/05/07 02:18:16;;;;;;;36.78;26.08;;;13.40;99.90;;;;;;5067847;28;20102;-68
2022/05/07 02:20:41;;;;;;;37.58;25.75;;;13.60;99.90;;;;;;5051597;28;20162;-68
2022/05/07 02:23:07;;;;;;;36.15;24.55;;;13.50;99.90;;;;;;5070148;28;20085;-68
2022/05/07 02:25:33;;;;;;;36.00;26.10;;;13.30;99.90;;;;;;5068585;28;20036;-68
2022/05/07 02:27:58;;;;;;;38.28;27.77;;;13.20;99.90;;;;;;5070775;28;20442;-68
2022/05/07 02:30:24;;;;;;;34.63;25.33;;;13.40;99.90;;;;;;5068387;28;20121;-68
2022/05/07 02:32:49;;;;;;;35.25;26.25;;;13.30;99.90;;;;;;5070520;28;20460;-67
2022/05/07 02:35:15;;;;;;;35.50;25.90;;;13.20;99.90;;;;;;5070437;28;20721;-67
2022/05/07 02:37:41;;;;;;;40.00;26.52;;;13.30;99.90;;;;;;5069483;28;20410;-68
2022/05/07 02:40:07;;;;;;;38.60;26.00;;;13.20;99.90;;;;;;5051638;28;20493;-68
2022/05/07 02:42:33;;;;;;;36.15;25.02;;;13.30;99.90;;;;;;5067582;28;20049;-68
2022/05/07 02:44:59;;;;;;;35.45;25.77;;;13.10;99.90;;;;;;5072776;28;20047;-68
2022/05/07 02:47:25;;;;;;;35.75;25.58;;;13.10;99.90;;;;;;5073041;28;20041;-68
2022/05/07 02:49:51;;;;;;;36.13;25.33;;;13.00;99.90;;;;;;5072045;28;20048;-68
2022/05/07 02:52:17;;;;;;;35.70;24.88;;;13.00;99.90;;;;;;5074326;28;20044;-69
2022/05/07 02:54:42;;;;;;;33.35;24.92;;;13.10;99.90;;;;;;5072472;28;20075;-68
2022/05/07 02:57:08;;;;;;;39.03;25.30;;;13.00;99.90;;;;;;5072667;28;20460;-68
2022/05/07 02:59:33;;;;;;;31.38;24.15;;;12.90;99.90;;;;;;5071322;22;20044;-70
2022/05/07 03:01:59;;;;;;;29.77;22.55;;;13.20;99.90;;;;;;5055072;28;20041;-70
2022/05/07 03:04:25;;;;;;;36.30;25.98;;;13.00;99.90;;;;;;5056241;28;20029;-70
2022/05/07 03:06:50;;;;;;;34.40;24.23;;;12.80;99.90;;;;;;5054671;28;20273;-71
2022/05/07 03:09:16;;;;;;;36.70;27.20;;;13.00;99.90;;;;;;5055133;28;20120;-70
2022/05/07 03:11:43;;;;;;;34.83;25.67;;;;;;;;;;5087501;28;20427;-70
2022/05/07 03:14:08;;;;;;;35.22;25.60;;;13.00;99.90;;;;;;5073391;28;20048;-69
2022/05/07 03:16:35;;;;;;;36.42;25.70;;;12.90;99.90;;;;;;5055994;28;20506;-70
2022/05/07 03:19:02;;;;;;;33.72;25.17;;;13.00;99.90;;;;;;5071790;28;20039;-70
2022/05/07 03:21:28;;;;;;;35.85;24.45;;;;;;;;;;5038984;28;20514;-70
2022/05/07 03:23:54;;;;;;;34.55;24.80;;;;;;;;;;5055048;28;20395;-70
2022/05/07 03:26:22;;;;;;;32.80;24.40;;;13.00;99.90;;;;;;5073098;28;20039;-70
2022/05/07 03:28:48;;;;;;;33.58;25.00;;;13.10;99.90;;;;;;5041795;28;20410;-70
2022/05/07 03:31:13;;;;;;;33.40;25.30;;;13.00;99.90;;;;;;5071945;28;20549;-70
2022/05/07 03:33:39;;;;;;;34.28;24.45;;;13.20;99.90;;;;;;5072655;28;20113;-70
2022/05/07 03:36:06;;;;;;;36.08;24.63;;;13.00;99.90;;;;;;5073316;28;20441;-70
2022/05/07 03:38:32;;;;;;;34.20;24.48;;;13.10;99.90;;;;;;5054026;28;20487;-70
2022/05/07 03:40:57;;;;;;;39.10;25.65;;;13.00;99.90;;;;;;5054729;28;20033;-70
2022/05/07 03:43:23;;;;;;;37.03;25.60;;;;;;;;;;5054734;28;20113;-70
2022/05/07 03:45:49;;;;;;;30.83;25.17;;;13.10;99.90;;;;;;5072576;28;20563;-70
2022/05/07 03:48:15;;;;;;;32.78;24.10;;;;;;;;;;5088865;28;20037;-70
2022/05/07 03:50:41;;;;;;;36.78;24.88;;;13.00;99.90;;;;;;5035989;28;20036;-70
2022/05/07 03:55:50;;;;;;;35.30;24.02;;;13.10;99.90;;;;;;5083315;28;20071;-70
2022/05/07 03:58:17;;;;;;;34.28;24.98;;;12.90;99.90;;;;;;5081781;28;20041;-71
2022/05/07 04:00:43;;;;;;;33.00;24.95;;;;;;;;;;5071488;28;20040;-70
2022/05/07 04:03:12;;;;;;;32.20;23.98;;;13.00;99.90;;;;;;5053271;28;20136;-70
2022/05/07 04:05:39;;;;;;;31.70;24.65;;;12.90;99.90;;;;;;5054759;28;20040;-70
2022/05/07 04:08:05;;;;;;;34.28;24.25;;;13.10;99.90;;;;;;5053709;28;20090;-70
2022/05/07 04:10:30;;;;;;;33.33;23.92;;;13.20;99.90;;;;;;5070734;28;20518;-70
2022/05/07 04:12:56;;;;;;;35.17;25.15;;;12.90;99.90;;;;;;5054735;28;20131;-70
2022/05/07 04:15:22;;;;;;;35.00;25.33;;;12.70;99.90;;;;;;5053025;28;20052;-70
2022/05/07 04:17:49;;;;;;;35.88;25.58;;;12.90;99.90;;;;;;5052428;28;20051;-70
2022/05/07 04:20:15;;;;;;;32.67;24.67;;;13.00;99.90;;;;;;5070346;28;20402;-70
2022/05/07 04:22:40;;;;;;;39.00;26.77;;;13.00;99.90;;;;;;5037440;28;20052;-70
2022/05/07 04:25:08;;;;;;;35.03;26.23;;;13.00;99.90;;;;;;5070397;28;20498;-71
2022/05/07 04:27:34;;;;;;;35.03;25.27;;;13.00;99.90;;;;;;5054637;28;20379;-70
2022/05/07 04:30:00;;;;;;;36.10;25.38;;;13.00;99.90;;;;;;5076656;28;20043;-70
2022/05/07 04:32:27;;;;;;;36.60;25.95;;;13.10;99.90;;;;;;5052650;28;20044;-70
2022/05/07 04:34:55;;;;;;;34.13;24.92;;;13.00;99.90;;;;;;5072200;28;20044;-69
2022/05/07 04:37:23;;;;;;;35.03;25.27;;;12.90;99.90;;;;;;5053109;28;20036;-70
2022/05/07 04:39:49;;;;;;;36.67;27.35;;;;;;;;;;5075899;28;20047;-71
2022/05/07 04:42:16;;;;;;;37.08;27.48;;;13.00;99.90;;;;;;5054346;28;20044;-70
2022/05/07 04:44:41;;;;;;;34.47;25.98;;;13.20;99.90;;;;;;5036551;28;20036;-70
2022/05/07 04:47:07;;;;;;;36.15;25.98;;;13.10;99.90;;;;;;5054251;28;20570;-71
2022/05/07 04:49:33;;;;;;;36.10;26.35;;;13.10;99.90;;;;;;5070761;28;20044;-71
2022/05/07 04:51:59;;;;;;;36.05;26.58;;;13.00;99.90;;;;;;5077740;28;20056;-70
2022/05/07 04:54:24;;;;;;;34.50;25.75;;;13.10;99.90;;;;;;5054157;28;20567;-70
2022/05/07 04:56:52;;;;;;;33.03;24.65;;;13.00;99.90;;;;;;5070543;28;20040;-70
2022/05/07 04:59:19;;;;;;;33.58;26.02;;;13.20;99.90;;;;;;5036197;28;20070;-70
2022/05/07 05:01:45;;;;;;;37.78;27.05;;;13.10;99.90;;;;;;5080063;28;20056;-69
2022/05/07 05:04:10;;;;;;;32.83;25.20;;;13.00;99.90;;;;;;5052273;28;20063;-70
2022/05/07 05:06:37;;;;;;;34.67;24.92;;;13.10;99.90;;;;;;5036091;28;20482;-70
2022/05/07 05:09:05;;;;;;;37.15;25.48;;;13.30;99.90;;;;;;5077510;28;20059;-70
2022/05/07 05:11:31;;;;;;;33.10;25.58;;;13.30;99.90;;;;;;5053149;28;20032;-70
2022/05/07 05:13:57;;;;;;;33.33;23.98;;;13.20;99.90;;;;;;5070133;28;20051;-70
2022/05/07 05:16:23;;;;;;;39.00;26.30;;;13.10;99.90;;;;;;5052568;28;20036;-70
2022/05/07 05:18:49;;;;;;;32.03;24.65;;;;;;;;;;5052984;28;20119;-70
2022/05/07 05:21:15;;;;;;;29.35;23.63;;;13.30;99.90;;;;;;5050748;28;20037;-70
2022/05/07 05:23:41;;;;;;;33.92;24.77;;;13.10;99.90;;;;;;5036571;28;20036;-70
2022/05/07 05:26:07;;;;;;;32.33;25.33;;;;;;;;;;5035575;28;20079;-71
2022/05/07 05:28:33;;;;;;;33.53;24.70;;;13.50;99.90;;;;;;5069714;28;20037;-70
2022/05/07 05:30:59;;;;;;;31.48;24.80;;;13.40;99.90;;;;;;5070110;28;20033;-71
2022/05/07 05:33:25;;;;;;;34.70;25.35;;;13.50;99.90;;;;;;5052124;28;20119;-71
2022/05/07 05:35:51;;;;;;;30.73;25.33;;;13.50;99.90;;;;;;5070358;28;20040;-70
2022/05/07 05:38:17;;;;;;;33.63;25.25;;;;;;;;;;5071179;28;20325;-70
2022/05/07 05:40:43;;;;;;;34.83;26.83;;;13.40;99.90;;;;;;5050428;28;20036;-70
2022/05/07 05:43:09;;;;;;;32.75;25.00;;;13.50;99.90;;;;;;5052953;28;20048;-70
2022/05/07 05:45:35;;;;;;;34.83;25.67;;;13.50;99.90;;;;;;5052484;28;20032;-70
2022/05/07 05:48:04;;;;;;;34.42;25.00;;;13.50;99.90;;;;;;5036195;28;20549;-70
2022/05/07 05:50:30;;;;;;;31.33;23.75;;;13.60;99.90;;;;;;5070352;28;20040;-70
2022/05/07 05:52:56;;;;;;;38.60;24.58;;;13.70;99.90;;;;;;5051540;28;20139;-70
2022/05/07 05:55:21;;;;;;;37.08;26.40;;;13.60;99.90;;;;;;5052892;28;20036;-70
2022/05/07 05:57:48;;;;;;;34.47;24.65;;;13.70;99.90;;;;;;5053252;28;20158;-70
2022/05/07 06:00:15;;;;;;;32.38;24.92;;;13.70;99.90;;;;;;5034184;28;20036;-70
2022/05/07 06:02:43;;;;;;;31.40;22.20;;;13.90;99.90;;;;;;5077783;28;20032;-70
2022/05/07 06:05:10;;;;;;;34.65;24.23;;;13.80;99.90;;;;;;5070747;28;20086;-70
2022/05/07 06:07:36;;;;;;;30.08;22.60;;;13.90;99.90;;;;;;5070078;28;20499;-70
2022/05/07 06:10:02;;;;;;;32.90;24.63;;;14.10;99.90;;;;;;5070283;28;20077;-70
2022/05/07 06:12:28;;;;;;;31.08;22.88;;;14.00;99.90;;;;;;5035860;28;20047;-70
2022/05/07 06:14:54;;;;;;;34.40;24.10;;;14.10;99.90;;;;;;5070620;28;20048;-70
2022/05/07 06:17:20;;;;;;;29.85;24.30;;;13.90;99.90;;;;;;5086884;28;20089;-70
2022/05/07 06:19:45;;;;;;;29.48;24.35;;;13.90;99.90;;;;;;5052786;28;20439;-70
2022/05/07 06:22:11;;;;;;;29.13;24.45;;;14.20;99.90;;;;;;5056923;28;20056;-70
2022/05/07 06:27:33;;;;;;;30.58;25.08;;;14.10;99.90;;;;;;5052119;28;20033;-70
2022/05/07 06:30:03;;;;;;;37.50;23.88;;;14.40;99.90;;;;;;5074154;28;20044;-70
2022/05/07 06:32:35;;;;;;;34.55;24.05;;;14.20;99.90;;;;;;5072864;28;20028;-70
2022/05/07 06:35:07;;;;;;;36.55;24.65;;;14.80;99.90;;;;;;5059168;28;20678;-71
2022/05/07 06:37:36;;;;;;;39.47;27.50;;;14.50;99.90;;;;;;5031792;28;20036;-70
2022/05/07 06:40:04;;;;;;;36.05;26.25;;;14.90;99.90;;;;;;5072142;28;20036;-70
2022/05/07 06:42:29;;;;;;;42.35;28.02;;;14.70;99.90;;;;;;5055516;28;20447;-71
2022/05/07 06:44:55;;;;;;;35.33;26.55;;;14.80;99.90;;;;;;5072935;28;20040;-70
2022/05/07 06:47:20;;;;;;;33.67;26.63;;;14.90;99.90;;;;;;5073382;28;20154;-70
2022/05/07 06:49:46;;;;;;;38.17;28.85;;;15.00;99.90;;;;;;5072069;28;20047;-71
2022/05/07 06:52:12;;;;;;;39.95;28.67;;;15.10;99.90;;;;;;5071883;28;20119;-71
2022/05/07 06:54:37;;;;;;;35.38;27.13;;;14.00;99.90;;;;;;5069350;28;20417;-70
2022/05/07 06:57:04;;;;;;;35.45;28.20;;;15.20;99.90;;;;;;5072863;28;20102;-70
2022/05/07 06:59:33;;;;;;;38.78;29.13;;;14.90;99.90;;;;;;5054099;28;20417;-70
2022/05/07 07:01:58;;;;;;;35.17;28.38;;;14.90;99.90;;;;;;5055903;28;20048;-70
2022/05/07 07:04:24;;;;;;;43.45;30.83;;;15.00;99.90;;;;;;5052931;28;20747;-70
2022/05/07 07:06:51;;;;;;;40.90;28.85;;;15.00;99.90;;;;;;5055212;28;20402;-70
2022/05/07 07:09:20;;;;;;;47.33;32.90;;;15.30;99.90;;;;;;5052527;28;20134;-71
2022/05/07 07:11:45;;;;;;;52.20;35.28;;;15.40;99.90;;;;;;5053826;28;20036;-70
2022/05/07 07:14:11;;;;;;;48.00;32.03;;;15.30;99.90;;;;;;5054240;28;20469;-70
2022/05/07 07:16:36;;;;;;;43.90;32.38;;;15.40;99.90;;;;;;5053844;28;20079;-71
2022/05/07 07:19:02;;;;;;;46.95;33.38;;;15.30;99.90;;;;;;5072414;28;20045;-70
2022/05/07 07:21:28;;;;;;;50.42;33.60;;;15.20;99.90;;;;;;5054368;28;20029;-70
2022/05/07 07:23:54;;;;;;;58.13;36.60;;;15.30;99.90;;;;;;5072945;28;20043;-70
2022/05/07 07:26:20;;;;;;;46.35;33.22;;;15.80;99.90;;;;;;5055305;28;20398;-70
2022/05/07 07:28:46;;;;;;;55.45;37.25;;;15.60;99.90;;;;;;5082756;28;20030;-70
2022/05/07 07:31:12;;;;;;;55.35;36.95;;;15.70;99.90;;;;;;5067519;28;20045;-70
2022/05/07 07:33:38;;;;;;;45.22;31.35;;;15.90;99.90;;;;;;5065131;28;20435;-70
2022/05/07 07:36:05;;;;;;;59.88;38.80;;;15.50;99.90;;;;;;5053637;28;20075;-70
2022/05/07 07:38:31;;;;;;;57.50;35.15;;;16.00;99.90;;;;;;5072538;28;20040;-70
2022/05/07 07:40:57;;;;;;;47.17;33.40;;;15.90;99.90;;;;;;5052457;28;20232;-70
2022/05/07 07:43:22;;;;;;;55.55;33.85;;;15.90;99.90;;;;;;5071425;28;20089;-70
2022/05/07 07:48:32;;;;;;;53.38;35.33;;;16.20;99.90;;;;;;5052934;28;20098;-70
2022/05/07 07:50:58;;;;;;;50.30;33.05;;;16.00;99.90;;;;;;5080705;28;20040;-71
2022/05/07 07:53:24;;;;;;;57.40;35.63;;;16.10;99.90;;;;;;5072382;28;20048;-70
2022/05/07 07:55:51;;;;;;;56.17;36.58;;;16.20;99.90;;;;;;5070750;28;20182;-70
2022/05/07 07:58:17;;;;;;;47.45;32.78;;;;;;;;;;5071322;28;20174;-70
2022/05/07 08:00:44;;;;;;;57.22;35.42;;;16.30;99.90;;;;;;5050878;28;20127;-70
2022/05/07 08:03:17;;;;;;;57.70;37.20;;;16.20;99.90;;;;;;5037079;28;20037;-70
2022/05/07 08:05:45;;;;;;;59.63;34.80;;;16.40;99.90;;;;;;5070759;28;20479;-71
2022/05/07 08:13:45;;;;;;;58.30;36.05;;;15.90;99.90;;;;;;5053014;28;20451;-70
2022/05/07 08:16:11;;;;;;;56.97;34.85;;;16.40;99.90;;;;;;5054271;28;20451;-70
2022/05/07 08:18:38;;;;;;;61.00;35.47;;;16.60;99.90;;;;;;5070657;28;20051;-70
2022/05/07 08:21:05;;;;;;;51.45;32.88;;;16.40;99.90;;;;;;5053239;28;20116;-70
2022/05/07 08:23:31;;;;;;;55.70;32.80;;;16.60;99.90;;;;;;5071735;28;20028;-70
2022/05/07 08:25:57;;;;;;;47.45;31.25;;;16.70;99.90;;;;;;5071501;28;20097;-70
2022/05/07 08:28:24;;;;;;;51.85;34.88;;;16.40;99.90;;;;;;5072278;28;20033;-69
2022/05/07 08:30:50;;;;;;;47.90;31.45;;;18.20;99.90;;;;;;5052577;28;20571;-70
2022/05/07 08:33:19;;;;;;;46.47;32.80;;;16.50;99.90;;;;;;5053265;28;20044;-70
2022/05/07 08:35:44;;;;;;;51.30;33.78;;;16.60;99.90;;;;;;5069105;28;20040;-71
2022/05/07 08:38:10;;;;;;;58.20;35.00;;;16.30;99.90;;;;;;5036002;28;20048;-70
2022/05/07 08:40:35;;;;;;;51.90;33.67;;;16.10;99.90;;;;;;5069867;28;20029;-70
2022/05/07 08:43:03;;;;;;;55.00;35.22;;;16.50;99.90;;;;;;5051190;28;20038;-70
2022/05/07 08:45:29;;;;;;;52.28;33.88;;;16.80;99.90;;;;;;5070521;28;20107;-70
2022/05/07 08:47:54;;;;;;;56.22;35.80;;;16.40;99.90;;;;;;5052659;28;20066;-70
2022/05/07 08:50:21;;;;;;;46.35;31.67;;;16.90;99.90;;;;;;5079874;28;20433;-71
2022/05/07 08:52:47;;;;;;;53.97;34.55;;;17.00;99.90;;;;;;5069436;28;20498;-69
2022/05/07 08:55:15;;;;;;;57.72;34.65;;;17.00;99.90;;;;;;5051036;28;20074;-71
2022/05/07 08:57:42;;;;;;;50.22;33.53;;;16.70;99.90;;;;;;5020302;28;20041;-70
2022/05/07 09:00:09;;;;;;;53.03;33.42;;;16.50;99.90;;;;;;5053186;28;20040;-70
2022/05/07 09:02:41;;;;;;;57.25;36.20;;;16.80;99.90;;;;;;5050930;28;20043;-70
2022/05/07 09:05:11;;;;;;;61.35;35.38;;;16.70;99.90;;;;;;5061653;28;20040;-70
2022/05/07 09:07:50;;;;;;;60.40;36.22;;;16.70;99.90;;;;;;5069132;28;20154;-71
2022/05/07 09:10:16;;;;;;;56.55;35.83;;;16.90;99.90;;;;;;5052189;28;20044;-70
2022/05/07 09:12:41;;;;;;;59.70;37.80;;;16.80;99.90;;;;;;5080410;28;20082;-70
2022/05/07 09:15:08;;;;;;;59.13;34.83;;;16.70;99.90;;;;;;5052624;28;20048;-71
2022/05/07 09:17:35;;;;;;;58.08;38.00;;;16.90;99.90;;;;;;5052107;28;20068;-70
2022/05/07 09:20:12;;;;;;;58.70;37.28;;;16.60;99.90;;;;;;5050045;28;20052;-70
2022/05/07 09:22:53;;;;;;;62.42;36.08;;;16.50;99.90;;;;;;5059779;28;20093;-68
2022/05/07 09:25:21;;;;;;;50.03;32.42;;;16.70;99.90;;;;;;5052160;28;20036;-70
2022/05/07 09:27:48;;;;;;;60.83;35.80;;;16.70;99.90;;;;;;5070343;28;20033;-70
2022/05/07 09:30:21;;;;;;;61.10;36.42;;;16.50;99.90;;;;;;5052312;28;20449;-70
2022/05/07 09:32:48;;;;;;;;;;;17.50;99.90;;;;;;5051502;28;20086;-70
2022/05/07 09:38:05;;;;;;;57.17;34.20;;;16.60;99.90;;;;;;5050934;28;20098;-70
2022/05/07 09:40:36;;;;;;;51.70;35.40;;;16.70;99.90;;;;;;5032804;28;20041;-70
2022/05/07 09:43:01;;;;;;;46.80;29.58;;;16.70;99.90;;;;;;5053284;28;20032;-70
2022/05/07 09:45:28;;;;;;;48.00;29.98;;;16.80;99.90;;;;;;5050485;28;20048;-70
2022/05/07 09:47:58;;;;;;;44.60;28.95;;;16.40;99.90;;;;;;5052027;28;20044;-70
2022/05/07 09:50:43;;;;;;;46.45;27.75;;;16.60;99.90;;;;;;5050036;28;20110;-70
2022/05/07 09:58:43;;;;;;;48.35;28.33;;;17.00;99.90;;;;;;5069994;28;20089;-70
2022/05/07 10:01:20;;;;;;;42.50;28.23;;;16.90;99.90;;;;;;5068617;28;20033;-71
2022/05/07 10:04:08;;;;;;;42.05;27.45;;;16.90;99.90;;;;;;5073972;28;20048;-68
2022/05/07 10:07:03;;;;;;;41.78;27.75;;;16.80;99.90;;;;;;5069558;28;20201;-70
2022/05/07 10:10:07;;;;;;;45.88;26.88;;;16.80;99.90;;;;;;5050485;28;20395;-70
2022/05/07 10:12:34;;;;;;;43.42;25.83;;;17.10;99.90;;;;;;5035544;28;20075;-70
2022/05/07 10:15:07;;;;;;;44.35;27.20;;;18.10;99.90;;;;;;5051805;28;20041;-70
2022/05/07 10:17:34;;;;;;;42.42;25.60;;;17.30;99.90;;;;;;5072763;28;20040;-70
2022/05/07 10:20:09;;;;;;;39.58;25.55;;;17.30;99.90;;;;;;5049972;28;20033;-70
2022/05/07 10:22:36;;;;;;;59.63;36.10;;;17.20;99.90;;;;;;5075292;28;20501;-70
2022/05/07 10:25:10;;;;;;;61.45;36.90;;;17.40;99.90;;;;;;5061476;28;20228;-70
2022/05/07 10:27:43;;;;;;;67.53;39.17;;;17.20;99.90;;;;;;5072746;28;20072;-71
2022/05/07 10:30:22;;;;;;;63.10;37.33;;;16.70;99.90;;;;;;5053612;28;20036;-70
2022/05/07 10:32:57;;;;;;;71.20;41.17;;;16.60;99.90;;;;;;5049360;28;20746;-70
2022/05/07 10:35:45;;;;;;;66.07;39.25;;;16.30;99.90;;;;;;5035829;28;20098;-70
2022/05/07 10:38:38;;;;;;;75.70;42.85;;;16.90;99.90;;;;;;5069623;28;20036;-70
2022/05/07 10:41:16;;;;;;;76.55;44.80;;;16.70;99.90;;;;;;5049826;28;20082;-70
2022/05/07 10:43:46;;;;;;;67.43;39.05;;;16.80;99.90;;;;;;5052015;28;20040;-70
2022/05/07 10:46:22;;;;;;;67.90;40.45;;;16.30;99.90;;;;;;5053142;28;20093;-70
2022/05/07 10:48:53;;;;;;;66.28;38.55;;;16.60;99.90;;;;;;5056685;28;20518;-70
2022/05/07 10:51:53;;;;;;;61.80;36.13;;;16.50;99.90;;;;;;5057460;28;20197;-70
2022/05/07 10:54:24;;;;;;;58.47;35.10;;;16.80;99.90;;;;;;5061855;28;20036;-70
2022/05/07 10:56:50;;;;;;;62.50;32.17;;;16.60;99.90;;;;;;5069771;28;20093;-70
2022/05/07 10:59:17;;;;;;;55.20;32.45;;;16.40;99.90;;;;;;5034072;28;20098;-69
2022/05/07 11:01:42;;;;;;;46.53;30.48;;;16.40;99.90;;;;;;5043929;28;20036;-70
2022/05/07 11:04:12;;;;;;;45.03;26.50;;;16.20;99.90;;;;;;5069503;28;20101;-70
2022/05/07 11:06:43;;;;;;;43.40;26.27;;;16.60;99.90;;;;;;5051842;28;20036;-70
2022/05/07 11:09:23;;;;;;;42.30;25.50;;;16.80;99.90;;;;;;5075388;28;20122;-70
2022/05/07 11:11:52;;;;;;;37.30;22.15;;;16.50;99.90;;;;;;5040301;28;20037;-70
2022/05/07 11:14:30;;;;;;;37.03;21.52;;;16.30;99.90;;;;;;5080941;28;20041;-71
2022/05/07 11:16:57;;;;;;;35.80;20.25;;;16.30;99.90;;;;;;5037895;28;20085;-71
2022/05/07 11:19:34;;;;;;;30.20;18.80;;;16.60;99.90;;;;;;5053712;28;20086;-70
2022/05/07 11:22:01;;;;;;;35.38;18.75;;;16.60;99.90;;;;;;5071853;28;20082;-70
2022/05/07 11:24:28;;;;;;;27.48;16.08;;;16.70;99.90;;;;;;5054635;28;20119;-71
2022/05/07 11:27:02;;;;;;;27.42;17.70;;;16.90;99.90;;;;;;5053704;28;20040;-70
2022/05/07 11:29:29;;;;;;;28.73;16.50;;;16.80;99.90;;;;;;5034907;28;20068;-70
2022/05/07 11:32:02;;;;;;;25.27;15.60;;;16.80;99.90;;;;;;5073296;28;20107;-70
2022/05/07 11:34:35;;;;;;;22.48;15.00;;;16.80;99.90;;;;;;5071453;28;20064;-71
2022/05/07 11:37:21;;;;;;;22.13;13.50;;;16.80;99.90;;;;;;5072486;28;20475;-70
2022/05/07 11:39:50;;;;;;;22.85;14.32;;;17.00;99.90;;;;;;5052743;28;20044;-70
2022/05/07 11:42:43;;;;;;;20.85;12.45;;;16.60;99.90;;;;;;5051911;28;20124;-71
2022/05/07 11:45:31;;;;;;;19.58;13.57;;;16.90;99.90;;;;;;5054872;28;20114;-70
2022/05/07 11:48:13;;;;;;;20.00;11.77;;;16.90;99.90;;;;;;5077719;28;20041;-70
2022/05/07 11:50:57;;;;;;;20.48;12.57;;;17.00;99.90;;;;;;5053339;28;20506;-71
2022/05/07 11:53:28;;;;;;;16.48;11.52;;;17.00;99.90;;;;;;5071960;28;20039;-70
2022/05/07 11:56:05;;;;;;;17.67;10.77;;;16.90;99.90;;;;;;5053843;28;20040;-70
2022/05/07 11:58:42;;;;;;;19.42;11.30;;;18.60;99.90;;;;;;5052796;28;20125;-69
2022/05/07 12:01:21;;;;;;;17.90;9.93;;;17.00;99.90;;;;;;5036859;28;20521;-70
2022/05/07 12:03:48;;;;;;;15.75;10.65;;;17.40;99.90;;;;;;5052790;28;20032;-70
2022/05/07 12:06:30;;;;;;;14.50;10.20;;;17.80;99.90;;;;;;5052312;28;20032;-70
2022/05/07 12:08:56;;;;;;;14.25;10.15;;;17.90;99.90;;;;;;5069840;28;20363;-70
2022/05/07 12:11:23;;;;;;;18.90;11.43;;;17.70;99.90;;;;;;5071695;28;20043;-70
2022/05/07 12:13:49;;;;;;;23.30;14.50;;;17.80;99.90;;;;;;5053123;28;20146;-70
2022/05/07 12:18:59;;;;;;;21.83;14.30;;;17.50;99.90;;;;;;5053209;28;20098;-73
2022/05/07 12:29:49;;;;;;;19.80;12.00;;;18.00;99.90;;;;;;5051014;28;20467;-71
2022/05/07 12:32:19;;;;;;;15.40;10.57;;;17.60;99.90;;;;;;5071304;28;20072;-70
2022/05/07 12:34:45;;;;;;;15.60;10.43;;;17.70;99.90;;;;;;5053312;28;20064;-70
2022/05/07 12:37:11;;;;;;;15.27;10.15;;;17.50;99.90;;;;;;5053829;28;20084;-71
2022/05/07 12:39:38;;;;;;;16.90;10.02;;;17.50;99.90;;;;;;5051150;28;20469;-72
2022/05/07 12:42:04;;;;;;;13.88;9.15;;;17.90;99.90;;;;;;5053414;28;20044;-71
2022/05/07 12:44:30;;;;;;;16.27;10.45;;;17.60;99.90;;;;;;5070409;28;20028;-71
2022/05/07 12:46:56;;;;;;;17.52;10.07;;;17.70;99.90;;;;;;5053815;28;20105;-70
2022/05/07 12:49:21;;;;;;;12.48;9.57;;;18.00;99.90;;;;;;5035510;28;20410;-71
2022/05/07 12:51:47;;;;;;;16.83;10.85;;;18.20;99.90;;;;;;5052270;28;20040;-70
2022/05/07 12:54:12;;;;;;;17.20;10.40;;;17.90;99.90;;;;;;5064382;28;20043;-71
2022/05/07 12:56:38;;;;;;;14.73;10.15;;;19.10;99.90;;;;;;5055716;28;20052;-71
2022/05/07 12:59:03;;;;;;;14.52;10.45;;;18.30;99.90;;;;;;5051525;28;20032;-70
2022/05/07 13:01:29;;;;;;;15.43;10.10;;;17.70;99.90;;;;;;5054749;28;20041;-71
2022/05/07 13:03:54;;;;;;;14.50;10.00;;;17.40;99.90;;;;;;5070971;28;20115;-71
2022/05/07 13:06:20;;;;;;;13.88;8.85;;;17.20;99.90;;;;;;5045819;28;20056;-71
2022/05/07 13:08:45;;;;;;;12.35;8.00;;;17.40;99.90;;;;;;5071719;28;20037;-70
2022/05/07 13:11:11;;;;;;;13.38;8.40;;;18.10;99.90;;;;;;5050099;28;20147;-70
2022/05/07 13:13:37;;;;;;;14.27;10.13;;;17.90;99.90;;;;;;5054105;28;20131;-70